createdAt,value
2022-08-20T00:01:29.773Z,100531.41
2022-08-20T00:04:06.404Z,100536.28
2022-08-20T00:06:40.449Z,100540.42
2022-08-20T00:09:12.241Z,100542.40
2022-08-20T00:11:44.607Z,100540.61
2022-08-20T00:14:16.723Z,100543.48
2022-08-20T00:16:48.625Z,100548.70
2022-08-20T00:19:21.389Z,100560.02
2022-08-20T00:21:57.991Z,100567.41
2022-08-20T00:24:34.353Z,100561.83
2022-08-20T00:27:06.700Z,100565.60
2022-08-20T00:29:38.983Z,100569.55
2022-08-20T00:32:11.020Z,100569.37
2022-08-20T00:34:42.998Z,100581.42
2022-08-20T00:37:15.530Z,100581.41
2022-08-20T00:39:47.687Z,100577.61
2022-08-20T00:42:19.545Z,100567.19
2022-08-20T00:44:55.909Z,100562.87
2022-08-20T00:47:27.791Z,100575.27
2022-08-20T00:50:02.177Z,100579.95
2022-08-20T00:52:34.574Z,100583.19
2022-08-20T00:55:08.684Z,100590.72
2022-08-20T00:58:01.369Z,100588.52
2022-08-20T01:00:38.875Z,100587.24
2022-08-20T01:03:15.041Z,100586.15
2022-08-20T01:05:50.440Z,100587.22
2022-08-20T01:08:26.796Z,100579.29
2022-08-20T01:11:10.058Z,100573.89
2022-08-20T01:13:44.700Z,100566.14
2022-08-20T01:16:24.689Z,100563.26
2022-08-20T01:18:58.719Z,100563.96
2022-08-20T01:21:33.774Z,100571.50
2022-08-20T01:24:21.056Z,100577.77
2022-08-20T01:26:54.573Z,100580.10
2022-08-20T01:29:33.854Z,100577.20
2022-08-20T01:32:09.043Z,100578.77
2022-08-20T01:34:41.073Z,100574.28
2022-08-20T01:37:15.171Z,100570.48
2022-08-20T01:39:47.107Z,100564.34
2022-08-20T01:42:27.002Z,100568.45
2022-08-20T01:44:59.020Z,100570.23
2022-08-20T01:47:38.565Z,100570.17
2022-08-20T01:50:25.233Z,100569.95
2022-08-20T01:53:04.515Z,100563.45
2022-08-20T01:55:36.663Z,100560.73
2022-08-20T01:58:08.514Z,100565.38
2022-08-20T02:00:40.605Z,100564.07
2022-08-20T02:03:12.479Z,100571.77
2022-08-20T02:05:45.064Z,100578.56
2022-08-20T02:08:17.034Z,100579.97
2022-08-20T02:10:49.352Z,100578.52
2022-08-20T02:13:21.982Z,100580.15
2022-08-20T02:15:53.864Z,100578.84
2022-08-20T02:18:27.200Z,100577.73
2022-08-20T02:20:59.313Z,100581.33
2022-08-20T02:23:31.451Z,100584.55
2022-08-20T02:26:03.381Z,100580.59
2022-08-20T02:28:35.528Z,100576.83
2022-08-20T02:31:09.392Z,100575.20
2022-08-20T02:33:41.182Z,100573.95
2022-08-20T02:36:36.547Z,100576.30
2022-08-20T02:39:11.603Z,100571.82
2022-08-20T02:41:44.070Z,100571.27
2022-08-20T02:44:16.977Z,100577.73
2022-08-20T02:46:51.240Z,100582.77
2022-08-20T02:49:23.812Z,100589.05
2022-08-20T02:51:55.714Z,100579.90
2022-08-20T02:54:29.440Z,100575.05
2022-08-20T02:57:02.433Z,100574.70
2022-08-20T02:59:34.287Z,100567.86
2022-08-20T03:02:06.560Z,100559.62
2022-08-20T03:04:43.375Z,100559.81
2022-08-20T03:07:18.057Z,100559.64
2022-08-20T03:09:51.573Z,100561.61
2022-08-20T03:12:23.382Z,100559.63
2022-08-20T03:14:55.173Z,100553.35
2022-08-20T03:17:27.122Z,100551.20
2022-08-20T03:19:58.963Z,100561.61
2022-08-20T03:22:30.833Z,100558.02
2022-08-20T03:25:03.142Z,100558.73
2022-08-20T03:27:36.438Z,100556.21
2022-08-20T03:30:13.662Z,100552.45
2022-08-20T03:32:46.406Z,100556.23
2022-08-20T03:35:21.751Z,100565.71
2022-08-20T03:37:53.972Z,100579.92
2022-08-20T03:40:31.951Z,100577.20
2022-08-20T03:43:04.980Z,100577.76
2022-08-20T03:45:38.349Z,100573.61
2022-08-20T03:48:13.256Z,100565.20
2022-08-20T03:50:48.230Z,100575.61
2022-08-20T03:53:23.589Z,100579.38
2022-08-20T03:56:00.463Z,100576.33
2022-08-20T03:58:36.036Z,100573.44
2022-08-20T04:01:45.207Z,100569.14
2022-08-20T04:04:01.796Z,100570.03
2022-08-20T04:06:33.770Z,100569.11
2022-08-20T04:09:05.842Z,100564.81
2022-08-20T04:11:38.566Z,100561.05
2022-08-20T04:14:18.570Z,100561.77
2022-08-20T04:16:51.811Z,100561.95
2022-08-20T04:19:34.407Z,100560.69
2022-08-20T04:22:08.163Z,100564.44
2022-08-20T04:24:40.253Z,100566.77
2022-08-20T04:27:14.982Z,100568.22
2022-08-20T04:29:47.113Z,100565.70
2022-08-20T04:32:19.124Z,100560.69
2022-08-20T04:34:52.304Z,100556.03
2022-08-20T04:37:25.487Z,100555.69
2022-08-20T04:40:15.616Z,100554.98
2022-08-20T04:42:49.982Z,100554.30
2022-08-20T04:45:25.880Z,100551.44
2022-08-20T04:47:57.855Z,100549.32
2022-08-20T04:50:30.101Z,100550.42
2022-08-20T04:53:02.580Z,100544.70
2022-08-20T04:55:35.499Z,100539.66
2022-08-20T04:58:10.004Z,100539.16
2022-08-20T05:00:42.209Z,100536.32
2022-08-20T05:03:14.119Z,100541.36
2022-08-20T05:05:46.682Z,100540.84
2022-08-20T05:08:23.317Z,100534.39
2022-08-20T05:10:59.882Z,100530.64
2022-08-20T05:13:50.611Z,100528.86
2022-08-20T05:16:24.226Z,100529.09
2022-08-20T05:18:57.302Z,100528.56
2022-08-20T05:21:29.562Z,100535.41
2022-08-20T05:24:02.597Z,100544.40
2022-08-20T05:27:24.930Z,100553.95
2022-08-20T05:30:14.065Z,100565.48
2022-08-20T05:32:48.943Z,100561.70
2022-08-20T05:35:20.994Z,100568.73
2022-08-20T05:38:38.021Z,100573.60
2022-08-20T05:41:13.923Z,100573.23
2022-08-20T05:44:02.936Z,100575.05
2022-08-20T05:46:34.748Z,100573.45
2022-08-20T05:49:08.041Z,100577.23
2022-08-20T05:51:40.614Z,100576.36
2022-08-20T05:54:12.998Z,100580.50
2022-08-20T05:56:45.013Z,100585.02
2022-08-20T05:59:19.976Z,100589.15
2022-08-20T06:01:56.533Z,100587.54
2022-08-20T06:04:32.183Z,100590.40
2022-08-20T06:07:08.084Z,100592.04
2022-08-20T06:09:44.339Z,100592.39
2022-08-20T06:12:17.090Z,100594.94
2022-08-20T06:14:49.142Z,100596.56
2022-08-20T06:17:22.310Z,100594.04
2022-08-20T06:19:54.360Z,100590.81
2022-08-20T06:22:26.191Z,100589.57
2022-08-20T06:24:58.929Z,100586.16
2022-08-20T06:27:31.543Z,100587.96
2022-08-20T06:30:04.174Z,100590.14
2022-08-20T06:32:36.904Z,100590.00
2022-08-20T06:35:11.609Z,100586.60
2022-08-20T06:37:43.420Z,100583.91
2022-08-20T06:40:21.305Z,100585.91
2022-08-20T06:42:53.820Z,100582.31
2022-08-20T06:45:27.898Z,100581.61
2022-08-20T06:48:01.963Z,100581.80
2022-08-20T06:50:47.277Z,100584.33
2022-08-20T06:53:21.927Z,100584.88
2022-08-20T06:55:56.967Z,100583.81
2022-08-20T06:58:37.745Z,100583.63
2022-08-20T07:01:12.327Z,100581.48
2022-08-20T07:03:55.551Z,100579.16
2022-08-20T07:06:28.627Z,100580.41
2022-08-20T07:09:00.735Z,100583.48
2022-08-20T07:11:33.155Z,100580.23
2022-08-20T07:14:06.025Z,100581.66
2022-08-20T07:16:37.882Z,100583.83
2022-08-20T07:19:09.825Z,100580.94
2022-08-20T07:21:42.090Z,100583.81
2022-08-20T07:24:14.044Z,100580.75
2022-08-20T07:26:45.874Z,100580.21
2022-08-20T07:29:21.731Z,100579.48
2022-08-20T07:32:11.558Z,100579.66
2022-08-20T07:34:44.705Z,100582.00
2022-08-20T07:37:16.759Z,100585.24
2022-08-20T07:39:52.384Z,100583.26
2022-08-20T07:42:24.596Z,100581.81
2022-08-20T07:44:56.669Z,100581.29
2022-08-20T07:47:28.754Z,100582.73
2022-08-20T07:50:00.731Z,100587.05
2022-08-20T07:52:35.496Z,100586.69
2022-08-20T07:55:12.692Z,100589.02
2022-08-20T07:57:46.953Z,100593.54
2022-08-20T08:00:21.215Z,100595.52
2022-08-20T08:02:53.191Z,100591.39
2022-08-20T08:05:26.326Z,100599.31
2022-08-20T08:07:58.969Z,100602.00
2022-08-20T08:10:31.687Z,100603.45
2022-08-20T08:13:08.794Z,100593.02
2022-08-20T08:15:43.460Z,100594.08
2022-08-20T08:18:21.747Z,100593.38
2022-08-20T08:20:56.900Z,100600.58
2022-08-20T08:23:31.586Z,100605.09
2022-08-20T08:26:04.439Z,100610.48
2022-08-20T08:28:37.172Z,100611.58
2022-08-20T08:31:09.338Z,100608.51
2022-08-20T08:33:41.899Z,100611.20
2022-08-20T08:36:16.329Z,100606.16
2022-08-20T08:38:48.762Z,100604.17
2022-08-20T08:41:31.426Z,100605.42
2022-08-20T08:44:09.582Z,100605.79
2022-08-20T08:46:44.416Z,100604.34
2022-08-20T08:49:19.770Z,100613.87
2022-08-20T08:51:57.190Z,100617.27
2022-08-20T08:54:33.489Z,100620.52
2022-08-20T08:57:07.849Z,100623.95
2022-08-20T08:59:48.502Z,100626.83
2022-08-20T09:02:36.438Z,100631.49
2022-08-20T09:05:17.865Z,100629.70
2022-08-20T09:07:54.346Z,100629.70
2022-08-20T09:10:29.318Z,100626.10
2022-08-20T09:13:02.396Z,100627.73
2022-08-20T09:15:37.741Z,100625.73
2022-08-20T09:18:09.781Z,100623.77
2022-08-20T09:20:41.776Z,100624.66
2022-08-20T09:23:13.731Z,100623.39
2022-08-20T09:25:46.882Z,100620.30
2022-08-20T09:28:18.932Z,100625.35
2022-08-20T09:30:51.105Z,100624.10
2022-08-20T09:33:23.454Z,100623.55
2022-08-20T09:35:55.870Z,100619.77
2022-08-20T09:38:27.747Z,100617.05
2022-08-20T09:40:59.910Z,100618.45
2022-08-20T09:43:31.956Z,100616.05
2022-08-20T09:46:04.012Z,100612.90
2022-08-20T09:48:36.251Z,100608.90
2022-08-20T09:51:08.716Z,100608.09
2022-08-20T09:53:41.003Z,100608.55
2022-08-20T09:56:15.186Z,100603.73
2022-08-20T09:58:53.218Z,100606.72
2022-08-20T10:01:25.708Z,100602.67
2022-08-20T10:03:57.634Z,100603.71
2022-08-20T10:06:32.422Z,100603.50
2022-08-20T10:09:07.215Z,100603.35
2022-08-20T10:11:39.155Z,100602.60
2022-08-20T10:14:10.943Z,100601.32
2022-08-20T10:16:43.091Z,100599.92
2022-08-20T10:19:14.910Z,100597.23
2022-08-20T10:21:46.895Z,100602.27
2022-08-20T10:24:19.446Z,100599.55
2022-08-20T10:26:51.769Z,100594.89
2022-08-20T10:29:23.906Z,100593.11
2022-08-20T10:31:57.253Z,100592.40
2022-08-20T10:34:29.374Z,100593.66
2022-08-20T10:37:01.465Z,100589.09
2022-08-20T10:39:33.290Z,100590.65
2022-08-20T10:42:05.619Z,100589.15
2022-08-20T10:44:37.706Z,100590.52
2022-08-20T10:47:26.653Z,100590.82
2022-08-20T10:50:02.141Z,100590.25
2022-08-20T10:52:34.401Z,100588.38
2022-08-20T10:55:07.911Z,100590.67
2022-08-20T10:57:41.892Z,100584.12
2022-08-20T11:00:18.335Z,100584.77
2022-08-20T11:02:50.862Z,100579.85
2022-08-20T11:05:22.798Z,100577.84
2022-08-20T11:08:00.281Z,100579.55
2022-08-20T11:10:35.055Z,100581.65
2022-08-20T11:13:08.668Z,100581.19
2022-08-20T11:15:42.784Z,100575.14
2022-08-20T11:18:15.589Z,100575.81
2022-08-20T11:20:49.028Z,100571.38
2022-08-20T11:23:21.013Z,100571.84
2022-08-20T11:25:53.841Z,100567.59
2022-08-20T11:28:31.412Z,100566.23
2022-08-20T11:31:04.584Z,100560.58
2022-08-20T11:33:38.277Z,100558.71
2022-08-20T11:36:12.210Z,100553.60
2022-08-20T11:38:44.495Z,100556.64
2022-08-20T11:41:17.266Z,100557.82
2022-08-20T11:44:10.555Z,100562.44
2022-08-20T11:46:41.252Z,100560.05
2022-08-20T11:49:13.451Z,100557.70
2022-08-20T11:51:49.479Z,100556.73
2022-08-20T11:54:22.030Z,100549.94
2022-08-20T11:56:53.943Z,100547.48
2022-08-20T11:59:26.032Z,100541.97
2022-08-20T12:02:03.339Z,100539.61
2022-08-20T12:04:36.300Z,100535.80
2022-08-20T12:07:14.783Z,100537.92
2022-08-20T12:09:50.904Z,100533.59
2022-08-20T12:12:24.665Z,100535.78
2022-08-20T12:14:57.997Z,100534.85
2022-08-20T12:17:32.871Z,100536.75
2022-08-20T12:20:12.335Z,100534.92
2022-08-20T12:22:45.009Z,100535.95
2022-08-20T12:25:17.491Z,100540.61
2022-08-20T12:27:49.697Z,100541.48
2022-08-20T12:30:24.786Z,100541.04
2022-08-20T12:32:56.715Z,100543.85
2022-08-20T12:35:29.905Z,100548.08
2022-08-20T12:38:07.114Z,100547.94
2022-08-20T12:40:39.577Z,100551.73
2022-08-20T12:43:11.493Z,100548.06
2022-08-20T12:45:43.538Z,100550.27
2022-08-20T12:48:16.183Z,100551.28
2022-08-20T12:50:50.113Z,100550.88
2022-08-20T12:53:24.683Z,100551.23
2022-08-20T12:55:57.123Z,100545.81
2022-08-20T12:58:29.193Z,100544.64
2022-08-20T13:01:01.065Z,100543.50
2022-08-20T13:03:33.011Z,100542.06
2022-08-20T13:06:12.774Z,100542.04
2022-08-20T13:08:44.656Z,100541.55
2022-08-20T13:11:16.715Z,100535.80
2022-08-20T13:13:48.709Z,100536.50
2022-08-20T13:16:20.668Z,100530.18
2022-08-20T13:18:52.588Z,100526.91
2022-08-20T13:21:24.406Z,100526.90
2022-08-20T13:23:56.414Z,100522.70
2022-08-20T13:26:28.301Z,100518.37
2022-08-20T13:29:00.241Z,100516.13
2022-08-20T13:31:35.188Z,100511.96
2022-08-20T13:34:07.101Z,100510.98
2022-08-20T13:36:39.121Z,100509.16
2022-08-20T13:39:11.063Z,100510.30
2022-08-20T13:41:43.775Z,100510.86
2022-08-20T13:44:15.568Z,100509.77
2022-08-20T13:46:48.718Z,100507.28
2022-08-20T13:49:20.751Z,100507.47
2022-08-20T13:51:52.650Z,100506.16
2022-08-20T13:54:27.174Z,100501.38
2022-08-20T13:57:10.352Z,100498.42
2022-08-20T13:59:44.028Z,100500.02
2022-08-20T14:02:18.561Z,100495.98
2022-08-20T14:04:51.898Z,100493.95
2022-08-20T14:07:31.979Z,100487.79
2022-08-20T14:10:09.200Z,100485.57
2022-08-20T14:12:41.255Z,100482.02
2022-08-20T14:15:15.385Z,100479.50
2022-08-20T14:17:53.841Z,100479.21
2022-08-20T14:20:29.288Z,100482.69
2022-08-20T14:23:04.321Z,100487.25
2022-08-20T14:25:36.736Z,100482.82
2022-08-20T14:28:18.663Z,100487.23
2022-08-20T14:30:53.302Z,100487.75
2022-08-20T14:33:26.824Z,100488.30
2022-08-20T14:35:59.009Z,100491.39
2022-08-20T14:38:30.784Z,100489.92
2022-08-20T14:41:02.758Z,100495.42
2022-08-20T14:43:34.586Z,100492.73
2022-08-20T14:46:06.678Z,100498.54
2022-08-20T14:48:38.619Z,100499.70
2022-08-20T14:51:10.738Z,100502.16
2022-08-20T14:53:42.553Z,100496.05
2022-08-20T14:56:15.695Z,100495.61
2022-08-20T14:58:47.641Z,100496.21
2022-08-20T15:01:19.734Z,100495.29
2022-08-20T15:03:51.785Z,100493.48
2022-08-20T15:06:25.937Z,100497.25
2022-08-20T15:08:58.138Z,100493.77
2022-08-20T15:11:34.099Z,100494.27
2022-08-20T15:14:06.620Z,100496.45
2022-08-20T15:16:39.503Z,100498.89
2022-08-20T15:19:11.467Z,100497.52
2022-08-20T15:21:45.079Z,100500.82
2022-08-20T15:24:19.363Z,100501.20
2022-08-20T15:26:51.741Z,100500.02
2022-08-20T15:29:23.693Z,100497.88
2022-08-20T15:31:56.042Z,100498.14
2022-08-20T15:34:31.914Z,100493.14
2022-08-20T15:37:09.795Z,100495.18
2022-08-20T15:39:45.723Z,100490.17
2022-08-20T15:42:18.949Z,100490.77
2022-08-20T15:44:51.788Z,100491.84
2022-08-20T15:47:29.270Z,100492.73
2022-08-20T15:50:07.984Z,100495.32
2022-08-20T15:52:47.801Z,100499.88
2022-08-20T15:55:20.074Z,100500.63
2022-08-20T15:58:02.559Z,100503.88
2022-08-20T16:00:41.733Z,100502.04
2022-08-20T16:03:35.333Z,100501.67
2022-08-20T16:06:13.677Z,100506.73
2022-08-20T16:09:03.345Z,100509.29
2022-08-20T16:11:52.287Z,100514.84
2022-08-20T16:14:29.395Z,100516.20
2022-08-20T16:17:10.978Z,100519.55
2022-08-20T16:19:52.881Z,100519.82
2022-08-20T16:22:35.254Z,100518.06
2022-08-20T16:25:08.952Z,100520.65
2022-08-20T16:27:50.414Z,100513.11
2022-08-20T16:30:33.742Z,100511.61
2022-08-20T16:33:10.756Z,100515.87
2022-08-20T16:35:52.224Z,100516.31
2022-08-20T16:38:34.382Z,100515.67
2022-08-20T16:41:14.234Z,100514.11
2022-08-20T16:43:53.517Z,100515.09
2022-08-20T16:46:30.042Z,100518.40
2022-08-20T16:49:06.509Z,100515.57
2022-08-20T16:51:46.155Z,100512.21
2022-08-20T16:54:28.445Z,100512.10
2022-08-20T16:57:06.085Z,100513.99
2022-08-20T16:59:57.468Z,100522.00
2022-08-20T17:02:29.725Z,100521.86
2022-08-20T17:05:06.739Z,100528.06
2022-08-20T17:07:49.446Z,100527.05
2022-08-20T17:10:26.819Z,100526.20
2022-08-20T17:13:04.064Z,100524.10
2022-08-20T17:15:38.715Z,100521.23
2022-08-20T17:18:29.368Z,100520.73
2022-08-20T17:21:06.107Z,100518.98
2022-08-20T17:23:55.592Z,100514.90
2022-08-20T17:26:36.159Z,100515.99
2022-08-20T17:29:16.356Z,100518.39
2022-08-20T17:31:52.711Z,100513.92
2022-08-20T17:34:28.568Z,100517.38
2022-08-20T17:37:04.700Z,100514.89
2022-08-20T17:39:45.826Z,100512.05
2022-08-20T17:42:22.608Z,100513.52
2022-08-20T17:45:03.096Z,100515.91
2022-08-20T17:47:40.115Z,100514.69
2022-08-20T17:50:20.837Z,100511.82
2022-08-20T17:53:03.597Z,100517.63
2022-08-20T17:55:39.064Z,100524.34
2022-08-20T17:58:16.464Z,100530.69
2022-08-20T18:00:48.481Z,100529.44
2022-08-20T18:03:23.686Z,100530.73
2022-08-20T18:06:12.043Z,100530.56
2022-08-20T18:09:00.575Z,100528.62
2022-08-20T18:11:40.666Z,100531.14
2022-08-20T18:14:35.342Z,100531.71
2022-08-20T18:17:18.517Z,100526.67
2022-08-20T18:20:21.277Z,100528.50
2022-08-20T18:22:59.276Z,100528.15
2022-08-20T18:25:37.067Z,100526.92
2022-08-20T18:28:15.591Z,100526.92
2022-08-20T18:30:57.089Z,100526.97
2022-08-20T18:33:33.375Z,100530.59
2022-08-20T18:36:11.721Z,100533.84
2022-08-20T18:38:56.426Z,100529.71
2022-08-20T18:41:32.854Z,100538.02
2022-08-20T18:44:09.048Z,100544.73
2022-08-20T18:46:54.491Z,100548.17
2022-08-20T18:49:33.906Z,100556.29
2022-08-20T18:52:14.573Z,100556.13
2022-08-20T18:54:55.639Z,100553.08
2022-08-20T18:57:40.697Z,100543.34
2022-08-20T19:00:18.392Z,100543.17
2022-08-20T19:02:58.129Z,100539.75
2022-08-20T19:05:38.203Z,100537.96
2022-08-20T19:08:10.724Z,100541.92
2022-08-20T19:10:51.254Z,100541.20
2022-08-20T19:13:49.713Z,100544.29
2022-08-20T19:16:37.205Z,100544.65
2022-08-20T19:19:16.967Z,100552.60
2022-08-20T19:21:49.449Z,100548.99
2022-08-20T19:24:28.716Z,100549.01
2022-08-20T19:27:04.732Z,100550.45
2022-08-20T19:29:43.591Z,100549.38
2022-08-20T19:32:22.125Z,100545.96
2022-08-20T19:34:57.211Z,100537.33
2022-08-20T19:37:39.842Z,100529.95
2022-08-20T19:40:28.315Z,100533.55
2022-08-20T19:43:03.563Z,100536.27
2022-08-20T19:45:45.360Z,100534.27
2022-08-20T19:48:42.595Z,100536.09
2022-08-20T19:51:23.901Z,100533.20
2022-08-20T19:53:55.996Z,100533.20
2022-08-20T19:56:29.545Z,100533.39
2022-08-20T19:59:05.283Z,100533.58
2022-08-20T20:01:37.612Z,100531.60
2022-08-20T20:04:18.076Z,100541.33
2022-08-20T20:06:51.672Z,100544.20
2022-08-20T20:09:28.340Z,100541.52
2022-08-20T20:12:09.682Z,100555.73
2022-08-20T20:14:54.996Z,100564.04
2022-08-20T20:17:32.926Z,100569.97
2022-08-20T20:20:21.574Z,100576.10
2022-08-20T20:23:00.901Z,100585.28
2022-08-20T20:25:45.788Z,100584.20
2022-08-20T20:28:23.989Z,100587.45
2022-08-20T20:31:06.438Z,100585.83
2022-08-20T20:33:43.927Z,100578.96
2022-08-20T20:36:19.954Z,100574.81
2022-08-20T20:38:59.201Z,100571.73
2022-08-20T20:41:36.077Z,100577.69
2022-08-20T20:44:21.227Z,100574.63
2022-08-20T20:46:57.304Z,100567.61
2022-08-20T20:49:32.404Z,100556.80
2022-08-20T20:52:15.136Z,100564.90
2022-08-20T20:54:49.044Z,100570.12
2022-08-20T20:57:32.682Z,100568.14
2022-08-20T21:00:17.524Z,100570.83
2022-08-20T21:02:53.280Z,100563.98
2022-08-20T21:05:28.757Z,100556.06
2022-08-20T21:08:03.428Z,100547.77
2022-08-20T21:10:38.577Z,100554.26
2022-08-20T21:13:13.700Z,100566.12
2022-08-20T21:15:45.843Z,100571.14
2022-08-20T21:18:21.903Z,100570.95
2022-08-20T21:20:58.662Z,100571.48
2022-08-20T21:23:39.622Z,100573.96
2022-08-20T21:26:14.503Z,100575.40
2022-08-20T21:28:46.505Z,100575.74
2022-08-20T21:31:18.447Z,100576.44
2022-08-20T21:33:50.490Z,100575.71
2022-08-20T21:36:22.494Z,100574.42
2022-08-20T21:38:54.477Z,100574.23
2022-08-20T21:41:29.874Z,100569.16
2022-08-20T21:44:04.993Z,100563.04
2022-08-20T21:46:36.922Z,100557.28
2022-08-20T21:49:09.105Z,100555.98
2022-08-20T21:51:40.948Z,100557.96
2022-08-20T21:54:12.812Z,100556.67
2022-08-20T21:56:47.164Z,100556.46
2022-08-20T21:59:20.692Z,100556.83
2022-08-20T22:01:53.158Z,100557.36
2022-08-20T22:04:45.742Z,100555.71
2022-08-20T22:07:18.130Z,100558.05
2022-08-20T22:09:51.076Z,100555.69
2022-08-20T22:12:26.706Z,100561.23
2022-08-20T22:14:58.554Z,100567.65
2022-08-20T22:17:30.813Z,100570.54
2022-08-20T22:20:02.701Z,100572.13
2022-08-20T22:22:34.789Z,100570.86
2022-08-20T22:25:07.901Z,100570.48
2022-08-20T22:27:44.355Z,100573.88
2022-08-20T22:30:16.568Z,100574.58
2022-08-20T22:32:51.786Z,100583.02
2022-08-20T22:35:25.031Z,100586.61
2022-08-20T22:37:57.212Z,100595.04
2022-08-20T22:40:29.103Z,100598.09
2022-08-20T22:43:01.182Z,100606.71
2022-08-20T22:45:33.333Z,100602.39
2022-08-20T22:48:06.826Z,100609.23
2022-08-20T22:50:39.671Z,100613.38
2022-08-20T22:53:16.003Z,100606.18
2022-08-20T22:55:47.958Z,100602.96
2022-08-20T22:58:21.000Z,100608.19
2022-08-20T23:01:04.728Z,100606.75
2022-08-20T23:03:39.083Z,100600.10
2022-08-20T23:06:13.840Z,100597.03
2022-08-20T23:08:46.633Z,100601.00
2022-08-20T23:11:20.636Z,100599.55
2022-08-20T23:13:52.698Z,100605.65
2022-08-20T23:16:25.112Z,100602.05
2022-08-20T23:22:15.045Z,100595.58
2022-08-20T23:24:47.764Z,100596.10
2022-08-20T23:27:21.823Z,100599.14
2022-08-20T23:29:54.260Z,100600.21
2022-08-20T23:32:26.250Z,100591.75
2022-08-20T23:34:58.080Z,100584.02
2022-08-20T23:37:31.277Z,100589.39
2022-08-20T23:40:05.915Z,100591.90
2022-08-20T23:42:38.423Z,100596.20
2022-08-20T23:45:12.954Z,100597.45
2022-08-20T23:47:45.447Z,100590.61
2022-08-20T23:50:21.225Z,100582.50
2022-08-20T23:53:00.150Z,100578.35
2022-08-20T23:55:33.113Z,100576.55
2022-08-20T23:58:05.567Z,100575.27
